sensor_id;sensor_type;location;lat;lon;timestamp;temperature;humidity
69715;HTU21D;56981;53.532;49.398;2023-02-20T00:01:16;-16.04;73.10
69715;HTU21D;56981;53.532;49.398;2023-02-20T00:03:44;-16.08;73.07
69715;HTU21D;56981;53.532;49.398;2023-02-20T00:06:10;-16.11;73.58
69715;HTU21D;56981;53.532;49.398;2023-02-20T00:08:36;-16.13;73.73
69715;HTU21D;56981;53.532;49.398;2023-02-20T00:11:02;-16.17;74.28
69715;HTU21D;56981;53.532;49.398;2023-02-20T00:13:29;-16.19;73.61
69715;HTU21D;56981;53.532;49.398;2023-02-20T00:15:55;-16.21;73.41
69715;HTU21D;56981;53.532;49.398;2023-02-20T00:18:21;-16.22;73.72
69715;HTU21D;56981;53.532;49.398;2023-02-20T00:20:47;-16.18;73.37
69715;HTU21D;56981;53.532;49.398;2023-02-20T00:23:13;-16.11;73.38
69715;HTU21D;56981;53.532;49.398;2023-02-20T00:25:39;-16.00;73.60
69715;HTU21D;56981;53.532;49.398;2023-02-20T00:28:05;-15.81;74.34
69715;HTU21D;56981;53.532;49.398;2023-02-20T00:30:31;-15.72;73.89
69715;HTU21D;56981;53.532;49.398;2023-02-20T00:32:57;-15.66;73.53
69715;HTU21D;56981;53.532;49.398;2023-02-20T00:35:24;-15.67;73.66
69715;HTU21D;56981;53.532;49.398;2023-02-20T00:37:51;-15.68;73.42
69715;HTU21D;56981;53.532;49.398;2023-02-20T00:40:19;-15.78;72.69
69715;HTU21D;56981;53.532;49.398;2023-02-20T00:42:45;-15.79;73.46
69715;HTU21D;56981;53.532;49.398;2023-02-20T00:45:13;-15.79;73.70
69715;HTU21D;56981;53.532;49.398;2023-02-20T00:47:40;-15.75;73.54
69715;HTU21D;56981;53.532;49.398;2023-02-20T00:50:07;-15.61;73.61
69715;HTU21D;56981;53.532;49.398;2023-02-20T00:52:33;-15.49;73.13
69715;HTU21D;56981;53.532;49.398;2023-02-20T00:55:01;-15.48;72.95
69715;HTU21D;56981;53.532;49.398;2023-02-20T00:57:27;-15.45;73.42
69715;HTU21D;56981;53.532;49.398;2023-02-20T00:59:53;-15.41;73.29
69715;HTU21D;56981;53.532;49.398;2023-02-20T01:02:19;-15.30;73.51
69715;HTU21D;56981;53.532;49.398;2023-02-20T01:04:45;-15.14;72.60
69715;HTU21D;56981;53.532;49.398;2023-02-20T01:07:11;-15.09;72.51
69715;HTU21D;56981;53.532;49.398;2023-02-20T01:09:37;-15.02;72.65
69715;HTU21D;56981;53.532;49.398;2023-02-20T01:12:03;-15.00;72.35
69715;HTU21D;56981;53.532;49.398;2023-02-20T01:14:29;-14.86;71.70
69715;HTU21D;56981;53.532;49.398;2023-02-20T01:16:55;-14.86;70.76
69715;HTU21D;56981;53.532;49.398;2023-02-20T01:19:22;-14.88;71.80
69715;HTU21D;56981;53.532;49.398;2023-02-20T01:21:49;-14.91;71.87
69715;HTU21D;56981;53.532;49.398;2023-02-20T01:24:15;-14.92;71.72
69715;HTU21D;56981;53.532;49.398;2023-02-20T01:26:43;-14.85;72.00
69715;HTU21D;56981;53.532;49.398;2023-02-20T01:29:10;-14.75;71.86
69715;HTU21D;56981;53.532;49.398;2023-02-20T01:31:37;-14.75;71.97
69715;HTU21D;56981;53.532;49.398;2023-02-20T01:34:03;-14.79;71.63
69715;HTU21D;56981;53.532;49.398;2023-02-20T01:36:30;-14.76;71.59
69715;HTU21D;56981;53.532;49.398;2023-02-20T01:38:55;-14.74;72.25
69715;HTU21D;56981;53.532;49.398;2023-02-20T01:41:23;-14.67;73.21
69715;HTU21D;56981;53.532;49.398;2023-02-20T01:43:49;-14.66;72.93
69715;HTU21D;56981;53.532;49.398;2023-02-20T01:49:01;-14.57;72.91
69715;HTU21D;56981;53.532;49.398;2023-02-20T01:51:34;-14.55;73.03
69715;HTU21D;56981;53.532;49.398;2023-02-20T01:54:03;-14.55;72.71
69715;HTU21D;56981;53.532;49.398;2023-02-20T01:56:30;-14.56;72.58
69715;HTU21D;56981;53.532;49.398;2023-02-20T01:58:57;-14.49;74.51
69715;HTU21D;56981;53.532;49.398;2023-02-20T02:01:23;-14.41;72.61
69715;HTU21D;56981;53.532;49.398;2023-02-20T02:03:56;-14.39;73.93
69715;HTU21D;56981;53.532;49.398;2023-02-20T02:06:23;-14.40;73.52
69715;HTU21D;56981;53.532;49.398;2023-02-20T02:08:51;-14.37;73.84
69715;HTU21D;56981;53.532;49.398;2023-02-20T02:11:19;-14.32;73.69
69715;HTU21D;56981;53.532;49.398;2023-02-20T02:13:47;-14.30;74.00
69715;HTU21D;56981;53.532;49.398;2023-02-20T02:33:06;-13.72;72.74
69715;HTU21D;56981;53.532;49.398;2023-02-20T02:38:35;-13.74;72.89
69715;HTU21D;56981;53.532;49.398;2023-02-20T02:44:29;-13.95;73.51
69715;HTU21D;56981;53.532;49.398;2023-02-20T02:47:50;-13.98;73.73
69715;HTU21D;56981;53.532;49.398;2023-02-20T02:50:02;-13.96;72.51
69715;HTU21D;56981;53.532;49.398;2023-02-20T02:52:31;-13.91;73.06
69715;HTU21D;56981;53.532;49.398;2023-02-20T02:55:07;-13.89;72.54
69715;HTU21D;56981;53.532;49.398;2023-02-20T02:57:34;-13.85;73.44
69715;HTU21D;56981;53.532;49.398;2023-02-20T03:00:44;-13.78;73.20
69715;HTU21D;56981;53.532;49.398;2023-02-20T03:05:27;-13.52;72.09
69715;HTU21D;56981;53.532;49.398;2023-02-20T03:08:08;-13.42;72.35
69715;HTU21D;56981;53.532;49.398;2023-02-20T03:10:41;-13.33;72.49
69715;HTU21D;56981;53.532;49.398;2023-02-20T03:13:09;-13.30;72.11
69715;HTU21D;56981;53.532;49.398;2023-02-20T03:15:42;-13.28;71.96
69715;HTU21D;56981;53.532;49.398;2023-02-20T03:18:32;-13.28;72.13
69715;HTU21D;56981;53.532;49.398;2023-02-20T03:21:08;-13.27;73.38
69715;HTU21D;56981;53.532;49.398;2023-02-20T03:23:40;-13.31;72.21
69715;HTU21D;56981;53.532;49.398;2023-02-20T03:26:10;-13.29;72.68
69715;HTU21D;56981;53.532;49.398;2023-02-20T03:28:47;-13.19;72.87
69715;HTU21D;56981;53.532;49.398;2023-02-20T03:31:17;-13.11;72.43
69715;HTU21D;56981;53.532;49.398;2023-02-20T03:33:57;-13.02;71.58
69715;HTU21D;56981;53.532;49.398;2023-02-20T03:36:50;-12.94;71.84
69715;HTU21D;56981;53.532;49.398;2023-02-20T03:39:41;-12.93;71.38
69715;HTU21D;56981;53.532;49.398;2023-02-20T03:42:30;-12.83;71.51
69715;HTU21D;56981;53.532;49.398;2023-02-20T03:45:17;-12.88;73.01
69715;HTU21D;56981;53.532;49.398;2023-02-20T03:47:46;-12.97;72.76
69715;HTU21D;56981;53.532;49.398;2023-02-20T03:50:15;-13.06;73.32
69715;HTU21D;56981;53.532;49.398;2023-02-20T03:52:43;-13.09;74.17
69715;HTU21D;56981;53.532;49.398;2023-02-20T03:55:10;-13.08;74.50
69715;HTU21D;56981;53.532;49.398;2023-02-20T03:57:40;-13.14;73.67
69715;HTU21D;56981;53.532;49.398;2023-02-20T04:00:10;-13.21;74.27
69715;HTU21D;56981;53.532;49.398;2023-02-20T04:02:41;-13.19;74.61
69715;HTU21D;56981;53.532;49.398;2023-02-20T04:05:13;-13.16;74.31
69715;HTU21D;56981;53.532;49.398;2023-02-20T04:10:50;-13.18;74.55
69715;HTU21D;56981;53.532;49.398;2023-02-20T04:13:18;-13.18;74.09
69715;HTU21D;56981;53.532;49.398;2023-02-20T04:15:45;-13.19;74.33
69715;HTU21D;56981;53.532;49.398;2023-02-20T04:18:15;-13.17;74.42
69715;HTU21D;56981;53.532;49.398;2023-02-20T04:20:44;-13.13;73.93
69715;HTU21D;56981;53.532;49.398;2023-02-20T04:23:20;-13.11;73.50
69715;HTU21D;56981;53.532;49.398;2023-02-20T04:28:18;-13.08;74.02
69715;HTU21D;56981;53.532;49.398;2023-02-20T04:30:45;-13.07;73.80
69715;HTU21D;56981;53.532;49.398;2023-02-20T04:33:12;-13.03;73.30
69715;HTU21D;56981;53.532;49.398;2023-02-20T04:35:39;-13.01;73.11
69715;HTU21D;56981;53.532;49.398;2023-02-20T04:38:06;-12.98;72.96
69715;HTU21D;56981;53.532;49.398;2023-02-20T04:40:33;-12.92;72.70
69715;HTU21D;56981;53.532;49.398;2023-02-20T04:42:59;-12.85;72.56
69715;HTU21D;56981;53.532;49.398;2023-02-20T04:45:25;-12.71;73.36
69715;HTU21D;56981;53.532;49.398;2023-02-20T04:47:51;-12.60;72.31
69715;HTU21D;56981;53.532;49.398;2023-02-20T04:50:30;-12.63;72.02
69715;HTU21D;56981;53.532;49.398;2023-02-20T04:52:57;-12.63;72.59
69715;HTU21D;56981;53.532;49.398;2023-02-20T04:55:23;-12.69;72.23
69715;HTU21D;56981;53.532;49.398;2023-02-20T04:57:50;-12.64;72.66
69715;HTU21D;56981;53.532;49.398;2023-02-20T05:00:18;-12.64;72.44
69715;HTU21D;56981;53.532;49.398;2023-02-20T05:02:45;-12.67;71.84
69715;HTU21D;56981;53.532;49.398;2023-02-20T05:05:24;-12.65;71.51
69715;HTU21D;56981;53.532;49.398;2023-02-20T05:08:02;-12.56;71.25
69715;HTU21D;56981;53.532;49.398;2023-02-20T05:10:30;-12.51;70.97
69715;HTU21D;56981;53.532;49.398;2023-02-20T05:12:56;-12.33;71.26
69715;HTU21D;56981;53.532;49.398;2023-02-20T05:15:24;-12.20;69.85
69715;HTU21D;56981;53.532;49.398;2023-02-20T05:17:50;-12.14;69.37
69715;HTU21D;56981;53.532;49.398;2023-02-20T05:20:17;-11.93;68.75
69715;HTU21D;56981;53.532;49.398;2023-02-20T05:22:45;-11.74;67.18
69715;HTU21D;56981;53.532;49.398;2023-02-20T05:25:11;-11.40;67.00
69715;HTU21D;56981;53.532;49.398;2023-02-20T05:27:38;-11.19;65.34
69715;HTU21D;56981;53.532;49.398;2023-02-20T05:30:05;-11.07;65.41
69715;HTU21D;56981;53.532;49.398;2023-02-20T05:32:32;-10.95;64.85
69715;HTU21D;56981;53.532;49.398;2023-02-20T05:34:58;-10.66;64.83
69715;HTU21D;56981;53.532;49.398;2023-02-20T05:37:26;-10.59;63.66
69715;HTU21D;56981;53.532;49.398;2023-02-20T05:39:52;-10.59;63.81
69715;HTU21D;56981;53.532;49.398;2023-02-20T05:42:19;-10.68;63.68
69715;HTU21D;56981;53.532;49.398;2023-02-20T05:44:47;-10.68;64.21
69715;HTU21D;56981;53.532;49.398;2023-02-20T05:47:15;-10.35;62.98
69715;HTU21D;56981;53.532;49.398;2023-02-20T05:49:41;-10.19;63.33
69715;HTU21D;56981;53.532;49.398;2023-02-20T05:52:07;-10.14;63.13
69715;HTU21D;56981;53.532;49.398;2023-02-20T05:54:38;-10.10;63.18
69715;HTU21D;56981;53.532;49.398;2023-02-20T05:57:04;-10.01;63.22
69715;HTU21D;56981;53.532;49.398;2023-02-20T05:59:30;-10.05;62.53
69715;HTU21D;56981;53.532;49.398;2023-02-20T06:01:57;-9.81;62.22
69715;HTU21D;56981;53.532;49.398;2023-02-20T06:04:24;-9.61;62.13
69715;HTU21D;56981;53.532;49.398;2023-02-20T06:06:51;-9.48;61.63
69715;HTU21D;56981;53.532;49.398;2023-02-20T06:09:17;-9.30;61.61
69715;HTU21D;56981;53.532;49.398;2023-02-20T06:11:54;-9.13;60.58
69715;HTU21D;56981;53.532;49.398;2023-02-20T06:14:24;-9.00;60.84
69715;HTU21D;56981;53.532;49.398;2023-02-20T06:16:51;-8.90;60.86
69715;HTU21D;56981;53.532;49.398;2023-02-20T06:19:19;-8.82;61.05
69715;HTU21D;56981;53.532;49.398;2023-02-20T06:21:48;-8.72;61.96
69715;HTU21D;56981;53.532;49.398;2023-02-20T06:24:15;-8.62;61.31
69715;HTU21D;56981;53.532;49.398;2023-02-20T06:26:42;-8.60;62.04
69715;HTU21D;56981;53.532;49.398;2023-02-20T06:29:15;-8.54;61.14
69715;HTU21D;56981;53.532;49.398;2023-02-20T06:31:41;-8.64;61.97
69715;HTU21D;56981;53.532;49.398;2023-02-20T06:34:07;-8.58;62.95
69715;HTU21D;56981;53.532;49.398;2023-02-20T06:36:37;-8.34;61.83
69715;HTU21D;56981;53.532;49.398;2023-02-20T06:39:04;-7.96;61.46
69715;HTU21D;56981;53.532;49.398;2023-02-20T06:41:31;-7.83;60.84
69715;HTU21D;56981;53.532;49.398;2023-02-20T06:43:57;-7.72;60.96
69715;HTU21D;56981;53.532;49.398;2023-02-20T06:46:24;-7.45;60.36
69715;HTU21D;56981;53.532;49.398;2023-02-20T06:48:52;-6.78;58.09
69715;HTU21D;56981;53.532;49.398;2023-02-20T06:51:24;-6.71;58.69
69715;HTU21D;56981;53.532;49.398;2023-02-20T06:53:51;-6.82;58.61
69715;HTU21D;56981;53.532;49.398;2023-02-20T06:56:20;-7.16;59.49
69715;HTU21D;56981;53.532;49.398;2023-02-20T06:58:47;-6.62;58.72
69715;HTU21D;56981;53.532;49.398;2023-02-20T07:01:14;-6.68;57.51
69715;HTU21D;56981;53.532;49.398;2023-02-20T07:03:41;-6.70;57.69
69715;HTU21D;56981;53.532;49.398;2023-02-20T07:06:07;-6.45;58.54
69715;HTU21D;56981;53.532;49.398;2023-02-20T07:08:33;-6.55;58.40
69715;HTU21D;56981;53.532;49.398;2023-02-20T07:10:59;-6.31;58.18
69715;HTU21D;56981;53.532;49.398;2023-02-20T07:13:25;-6.72;58.78
69715;HTU21D;56981;53.532;49.398;2023-02-20T07:15:51;-7.03;60.74
69715;HTU21D;56981;53.532;49.398;2023-02-20T07:18:17;-7.06;61.29
69715;HTU21D;56981;53.532;49.398;2023-02-20T07:20:46;-6.81;60.06
69715;HTU21D;56981;53.532;49.398;2023-02-20T07:23:12;-6.48;59.45
69715;HTU21D;56981;53.532;49.398;2023-02-20T07:25:38;-6.44;59.50
69715;HTU21D;56981;53.532;49.398;2023-02-20T07:28:04;-6.38;60.08
69715;HTU21D;56981;53.532;49.398;2023-02-20T07:30:33;-6.29;59.80
69715;HTU21D;56981;53.532;49.398;2023-02-20T07:32:59;-6.23;58.36
69715;HTU21D;56981;53.532;49.398;2023-02-20T07:35:25;-6.46;58.93
69715;HTU21D;56981;53.532;49.398;2023-02-20T07:37:51;-6.55;58.96
69715;HTU21D;56981;53.532;49.398;2023-02-20T07:40:17;-6.33;59.49
69715;HTU21D;56981;53.532;49.398;2023-02-20T07:42:44;-6.46;58.84
69715;HTU21D;56981;53.532;49.398;2023-02-20T07:45:10;-6.09;58.59
69715;HTU21D;56981;53.532;49.398;2023-02-20T07:47:36;-6.19;58.39
69715;HTU21D;56981;53.532;49.398;2023-02-20T07:50:02;-6.32;58.57
69715;HTU21D;56981;53.532;49.398;2023-02-20T07:52:29;-6.29;58.22
69715;HTU21D;56981;53.532;49.398;2023-02-20T07:54:55;-6.16;57.23
69715;HTU21D;56981;53.532;49.398;2023-02-20T07:57:21;-5.82;56.16
69715;HTU21D;56981;53.532;49.398;2023-02-20T07:59:47;-6.01;56.96
69715;HTU21D;56981;53.532;49.398;2023-02-20T08:02:13;-5.94;58.32
69715;HTU21D;56981;53.532;49.398;2023-02-20T08:04:39;-5.71;57.03
69715;HTU21D;56981;53.532;49.398;2023-02-20T08:07:05;-6.11;57.29
69715;HTU21D;56981;53.532;49.398;2023-02-20T08:09:31;-6.15;58.29
69715;HTU21D;56981;53.532;49.398;2023-02-20T08:11:57;-5.98;58.70
69715;HTU21D;56981;53.532;49.398;2023-02-20T08:14:24;-5.93;58.92
69715;HTU21D;56981;53.532;49.398;2023-02-20T08:16:50;-5.99;58.37
69715;HTU21D;56981;53.532;49.398;2023-02-20T08:19:16;-5.93;59.44
69715;HTU21D;56981;53.532;49.398;2023-02-20T08:21:42;-5.45;57.80
69715;HTU21D;56981;53.532;49.398;2023-02-20T08:24:08;-5.02;56.81
69715;HTU21D;56981;53.532;49.398;2023-02-20T08:26:34;-4.71;55.52
69715;HTU21D;56981;53.532;49.398;2023-02-20T08:29:00;-4.50;54.44
69715;HTU21D;56981;53.532;49.398;2023-02-20T08:31:26;-4.61;54.94
69715;HTU21D;56981;53.532;49.398;2023-02-20T08:33:53;-4.90;56.97
69715;HTU21D;56981;53.532;49.398;2023-02-20T08:36:19;-4.89;55.84
69715;HTU21D;56981;53.532;49.398;2023-02-20T08:38:45;-4.46;56.23
69715;HTU21D;56981;53.532;49.398;2023-02-20T08:41:12;-4.04;54.15
69715;HTU21D;56981;53.532;49.398;2023-02-20T08:43:42;-3.95;55.06
69715;HTU21D;56981;53.532;49.398;2023-02-20T08:46:10;-3.56;53.27
69715;HTU21D;56981;53.532;49.398;2023-02-20T08:48:36;-3.49;53.30
69715;HTU21D;56981;53.532;49.398;2023-02-20T08:51:03;-3.49;52.65
69715;HTU21D;56981;53.532;49.398;2023-02-20T08:53:30;-3.52;52.61
69715;HTU21D;56981;53.532;49.398;2023-02-20T08:55:56;-3.51;52.45
69715;HTU21D;56981;53.532;49.398;2023-02-20T08:58:23;-3.48;52.92
69715;HTU21D;56981;53.532;49.398;2023-02-20T09:00:50;-3.43;52.27
69715;HTU21D;56981;53.532;49.398;2023-02-20T09:03:16;-4.00;55.58
69715;HTU21D;56981;53.532;49.398;2023-02-20T09:05:43;-4.28;55.28
69715;HTU21D;56981;53.532;49.398;2023-02-20T09:08:09;-4.31;57.17
69715;HTU21D;56981;53.532;49.398;2023-02-20T09:10:36;-4.31;56.53
69715;HTU21D;56981;53.532;49.398;2023-02-20T09:13:02;-4.00;55.78
69715;HTU21D;56981;53.532;49.398;2023-02-20T09:15:28;-4.00;54.56
69715;HTU21D;56981;53.532;49.398;2023-02-20T09:17:56;-4.25;56.05
69715;HTU21D;56981;53.532;49.398;2023-02-20T09:20:22;-3.98;55.77
69715;HTU21D;56981;53.532;49.398;2023-02-20T09:22:49;-3.41;54.17
69715;HTU21D;56981;53.532;49.398;2023-02-20T09:25:17;-3.21;53.70
69715;HTU21D;56981;53.532;49.398;2023-02-20T09:27:43;-3.01;53.90
69715;HTU21D;56981;53.532;49.398;2023-02-20T09:30:16;-3.10;54.06
69715;HTU21D;56981;53.532;49.398;2023-02-20T09:32:44;-3.38;54.16
69715;HTU21D;56981;53.532;49.398;2023-02-20T09:35:29;-3.33;54.90
69715;HTU21D;56981;53.532;49.398;2023-02-20T09:37:56;-3.13;53.86
69715;HTU21D;56981;53.532;49.398;2023-02-20T09:40:27;-3.05;53.78
69715;HTU21D;56981;53.532;49.398;2023-02-20T09:46:03;-3.70;56.10
69715;HTU21D;56981;53.532;49.398;2023-02-20T09:51:24;-3.04;55.29
69715;HTU21D;56981;53.532;49.398;2023-02-20T09:56:36;-2.74;54.44
69715;HTU21D;56981;53.532;49.398;2023-02-20T10:04:52;-3.00;52.80
69715;HTU21D;56981;53.532;49.398;2023-02-20T10:07:27;-2.91;51.50
69715;HTU21D;56981;53.532;49.398;2023-02-20T10:09:54;-2.83;52.36
69715;HTU21D;56981;53.532;49.398;2023-02-20T10:12:34;-2.84;52.86
69715;HTU21D;56981;53.532;49.398;2023-02-20T10:21:02;-3.32;54.47
69715;HTU21D;56981;53.532;49.398;2023-02-20T10:23:35;-3.32;54.13
69715;HTU21D;56981;53.532;49.398;2023-02-20T10:26:07;-3.50;55.11
69715;HTU21D;56981;53.532;49.398;2023-02-20T10:28:35;-3.63;55.45
69715;HTU21D;56981;53.532;49.398;2023-02-20T10:31:31;-3.58;55.29
69715;HTU21D;56981;53.532;49.398;2023-02-20T10:34:05;-3.37;55.04
69715;HTU21D;56981;53.532;49.398;2023-02-20T10:36:40;-3.33;54.89
69715;HTU21D;56981;53.532;49.398;2023-02-20T10:39:10;-3.31;55.49
69715;HTU21D;56981;53.532;49.398;2023-02-20T10:41:41;-3.39;54.97
69715;HTU21D;56981;53.532;49.398;2023-02-20T10:44:17;-3.72;56.52
69715;HTU21D;56981;53.532;49.398;2023-02-20T10:46:51;-3.86;57.51
69715;HTU21D;56981;53.532;49.398;2023-02-20T10:49:36;-4.04;58.48
69715;HTU21D;56981;53.532;49.398;2023-02-20T10:52:06;-3.95;58.84
69715;HTU21D;56981;53.532;49.398;2023-02-20T10:54:36;-3.79;57.97
69715;HTU21D;56981;53.532;49.398;2023-02-20T11:02:14;-3.97;57.94
69715;HTU21D;56981;53.532;49.398;2023-02-20T11:04:49;-4.07;58.78
69715;HTU21D;56981;53.532;49.398;2023-02-20T11:07:16;-4.30;60.52
69715;HTU21D;56981;53.532;49.398;2023-02-20T11:09:47;-3.92;59.16
69715;HTU21D;56981;53.532;49.398;2023-02-20T11:15:11;-3.70;58.22
69715;HTU21D;56981;53.532;49.398;2023-02-20T11:17:39;-3.74;58.67
69715;HTU21D;56981;53.532;49.398;2023-02-20T11:20:37;-3.65;58.45
69715;HTU21D;56981;53.532;49.398;2023-02-20T11:22:52;-3.89;58.39
69715;HTU21D;56981;53.532;49.398;2023-02-20T11:25:32;-4.22;60.00
69715;HTU21D;56981;53.532;49.398;2023-02-20T11:28:20;-4.65;61.18
69715;HTU21D;56981;53.532;49.398;2023-02-20T11:30:49;-4.65;61.24
69715;HTU21D;56981;53.532;49.398;2023-02-20T11:33:24;-4.78;61.83
69715;HTU21D;56981;53.532;49.398;2023-02-20T11:35:55;-4.57;61.83
69715;HTU21D;56981;53.532;49.398;2023-02-20T11:43:42;-4.83;63.44
69715;HTU21D;56981;53.532;49.398;2023-02-20T11:51:48;-4.75;64.60
69715;HTU21D;56981;53.532;49.398;2023-02-20T11:54:23;-4.78;64.02
69715;HTU21D;56981;53.532;49.398;2023-02-20T11:57:09;-4.75;63.98
69715;HTU21D;56981;53.532;49.398;2023-02-20T11:59:50;-4.95;64.86
69715;HTU21D;56981;53.532;49.398;2023-02-20T12:07:26;-5.23;66.36
69715;HTU21D;56981;53.532;49.398;2023-02-20T12:09:56;-5.26;66.52
69715;HTU21D;56981;53.532;49.398;2023-02-20T12:12:26;-5.39;67.07
69715;HTU21D;56981;53.532;49.398;2023-02-20T12:14:53;-5.30;67.14
69715;HTU21D;56981;53.532;49.398;2023-02-20T12:20:15;-5.25;66.81
69715;HTU21D;56981;53.532;49.398;2023-02-20T12:34:03;-5.72;70.13
69715;HTU21D;56981;53.532;49.398;2023-02-20T12:36:42;-5.82;70.13
69715;HTU21D;56981;53.532;49.398;2023-02-20T12:42:05;-5.88;71.63
69715;HTU21D;56981;53.532;49.398;2023-02-20T12:44:48;-5.94;72.74
69715;HTU21D;56981;53.532;49.398;2023-02-20T12:47:30;-5.89;71.77
69715;HTU21D;56981;53.532;49.398;2023-02-20T12:50:39;-5.94;71.78
69715;HTU21D;56981;53.532;49.398;2023-02-20T12:53:18;-6.04;72.08
69715;HTU21D;56981;53.532;49.398;2023-02-20T12:58:52;-6.08;72.19
69715;HTU21D;56981;53.532;49.398;2023-02-20T13:01:22;-6.14;72.72
69715;HTU21D;56981;53.532;49.398;2023-02-20T13:06:31;-6.21;72.39
69715;HTU21D;56981;53.532;49.398;2023-02-20T13:09:25;-6.46;73.57
69715;HTU21D;56981;53.532;49.398;2023-02-20T13:12:04;-6.42;74.31
69715;HTU21D;56981;53.532;49.398;2023-02-20T13:20:16;-6.49;74.06
69715;HTU21D;56981;53.532;49.398;2023-02-20T13:23:00;-6.53;74.25
69715;HTU21D;56981;53.532;49.398;2023-02-20T13:28:00;-6.59;74.28
69715;HTU21D;56981;53.532;49.398;2023-02-20T13:30:26;-6.61;74.89
69715;HTU21D;56981;53.532;49.398;2023-02-20T13:33:25;-6.63;74.40
69715;HTU21D;56981;53.532;49.398;2023-02-20T13:35:57;-6.56;74.22
69715;HTU21D;56981;53.532;49.398;2023-02-20T13:38:25;-6.60;74.69
69715;HTU21D;56981;53.532;49.398;2023-02-20T13:53:51;-6.64;74.92
69715;HTU21D;56981;53.532;49.398;2023-02-20T13:56:23;-6.64;75.03
69715;HTU21D;56981;53.532;49.398;2023-02-20T13:58:53;-6.70;74.88
69715;HTU21D;56981;53.532;49.398;2023-02-20T14:01:21;-6.71;75.55
69715;HTU21D;56981;53.532;49.398;2023-02-20T14:03:59;-6.72;75.92
69715;HTU21D;56981;53.532;49.398;2023-02-20T14:06:26;-6.72;75.50
69715;HTU21D;56981;53.532;49.398;2023-02-20T14:09:12;-6.71;75.58
69715;HTU21D;56981;53.532;49.398;2023-02-20T14:11:40;-6.73;75.70
69715;HTU21D;56981;53.532;49.398;2023-02-20T14:14:09;-6.80;75.92
69715;HTU21D;56981;53.532;49.398;2023-02-20T14:16:40;-6.75;76.12
69715;HTU21D;56981;53.532;49.398;2023-02-20T14:19:41;-6.78;76.29
69715;HTU21D;56981;53.532;49.398;2023-02-20T14:27:39;-6.85;76.81
69715;HTU21D;56981;53.532;49.398;2023-02-20T14:30:15;-6.88;77.13
69715;HTU21D;56981;53.532;49.398;2023-02-20T14:32:51;-6.87;77.32
69715;HTU21D;56981;53.532;49.398;2023-02-20T14:38:44;-6.87;77.78
69715;HTU21D;56981;53.532;49.398;2023-02-20T14:40:44;-6.87;78.76
69715;HTU21D;56981;53.532;49.398;2023-02-20T14:45:43;-6.72;78.46
69715;HTU21D;56981;53.532;49.398;2023-02-20T14:48:33;-6.68;77.67
69715;HTU21D;56981;53.532;49.398;2023-02-20T14:51:21;-6.59;77.62
69715;HTU21D;56981;53.532;49.398;2023-02-20T14:53:57;-6.58;78.62
69715;HTU21D;56981;53.532;49.398;2023-02-20T14:56:24;-6.62;78.08
69715;HTU21D;56981;53.532;49.398;2023-02-20T14:58:50;-6.60;79.02
69715;HTU21D;56981;53.532;49.398;2023-02-20T15:04:05;-6.65;77.97
69715;HTU21D;56981;53.532;49.398;2023-02-20T15:06:35;-6.65;78.21
69715;HTU21D;56981;53.532;49.398;2023-02-20T15:09:02;-6.68;79.17
69715;HTU21D;56981;53.532;49.398;2023-02-20T15:11:30;-6.76;78.31
69715;HTU21D;56981;53.532;49.398;2023-02-20T15:13:57;-6.85;78.99
69715;HTU21D;56981;53.532;49.398;2023-02-20T15:16:32;-6.89;79.75
69715;HTU21D;56981;53.532;49.398;2023-02-20T15:19:19;-6.93;80.79
69715;HTU21D;56981;53.532;49.398;2023-02-20T15:21:55;-6.90;80.04
69715;HTU21D;56981;53.532;49.398;2023-02-20T15:24:38;-6.93;80.48
69715;HTU21D;56981;53.532;49.398;2023-02-20T15:27:08;-7.00;81.17
69715;HTU21D;56981;53.532;49.398;2023-02-20T15:29:34;-6.98;81.04
69715;HTU21D;56981;53.532;49.398;2023-02-20T15:32:03;-6.96;81.02
69715;HTU21D;56981;53.532;49.398;2023-02-20T15:34:34;-6.98;80.24
69715;HTU21D;56981;53.532;49.398;2023-02-20T15:37:34;-7.04;80.24
69715;HTU21D;56981;53.532;49.398;2023-02-20T15:39:54;-7.12;78.95
69715;HTU21D;56981;53.532;49.398;2023-02-20T15:42:22;-7.20;79.39
69715;HTU21D;56981;53.532;49.398;2023-02-20T15:44:48;-7.24;79.65
69715;HTU21D;56981;53.532;49.398;2023-02-20T15:47:15;-7.25;80.19
69715;HTU21D;56981;53.532;49.398;2023-02-20T15:49:41;-7.22;80.49
69715;HTU21D;56981;53.532;49.398;2023-02-20T15:52:14;-7.22;80.06
69715;HTU21D;56981;53.532;49.398;2023-02-20T15:54:41;-7.21;80.28
69715;HTU21D;56981;53.532;49.398;2023-02-20T15:57:15;-7.22;80.36
69715;HTU21D;56981;53.532;49.398;2023-02-20T15:59:43;-7.16;80.11
69715;HTU21D;56981;53.532;49.398;2023-02-20T16:02:18;-7.23;80.14
69715;HTU21D;56981;53.532;49.398;2023-02-20T16:04:47;-7.27;79.95
69715;HTU21D;56981;53.532;49.398;2023-02-20T16:07:15;-7.27;79.75
69715;HTU21D;56981;53.532;49.398;2023-02-20T16:09:41;-7.29;79.33
69715;HTU21D;56981;53.532;49.398;2023-02-20T16:12:16;-7.34;80.06
69715;HTU21D;56981;53.532;49.398;2023-02-20T16:14:44;-7.42;81.12
69715;HTU21D;56981;53.532;49.398;2023-02-20T16:17:17;-7.39;80.49
69715;HTU21D;56981;53.532;49.398;2023-02-20T16:19:44;-7.36;79.69
69715;HTU21D;56981;53.532;49.398;2023-02-20T16:22:11;-7.36;79.98
69715;HTU21D;56981;53.532;49.398;2023-02-20T16:24:37;-7.42;78.89
69715;HTU21D;56981;53.532;49.398;2023-02-20T16:27:05;-7.45;79.19
69715;HTU21D;56981;53.532;49.398;2023-02-20T16:29:34;-7.46;79.56
69715;HTU21D;56981;53.532;49.398;2023-02-20T16:34:28;-7.36;79.57
69715;HTU21D;56981;53.532;49.398;2023-02-20T16:36:59;-7.35;79.40
69715;HTU21D;56981;53.532;49.398;2023-02-20T16:39:25;-7.37;79.29
69715;HTU21D;56981;53.532;49.398;2023-02-20T16:41:51;-7.44;79.75
69715;HTU21D;56981;53.532;49.398;2023-02-20T16:44:35;-7.40;79.59
69715;HTU21D;56981;53.532;49.398;2023-02-20T16:47:02;-7.44;79.11
69715;HTU21D;56981;53.532;49.398;2023-02-20T16:49:28;-7.46;79.72
69715;HTU21D;56981;53.532;49.398;2023-02-20T16:51:54;-7.44;79.36
69715;HTU21D;56981;53.532;49.398;2023-02-20T16:54:34;-7.36;79.10
69715;HTU21D;56981;53.532;49.398;2023-02-20T16:57:01;-7.40;78.63
69715;HTU21D;56981;53.532;49.398;2023-02-20T16:59:27;-7.50;79.12
69715;HTU21D;56981;53.532;49.398;2023-02-20T17:01:57;-7.45;79.38
69715;HTU21D;56981;53.532;49.398;2023-02-20T17:04:24;-7.42;79.44
69715;HTU21D;56981;53.532;49.398;2023-02-20T17:06:50;-7.40;78.99
69715;HTU21D;56981;53.532;49.398;2023-02-20T17:09:16;-7.34;78.86
69715;HTU21D;56981;53.532;49.398;2023-02-20T17:11:42;-7.36;78.54
69715;HTU21D;56981;53.532;49.398;2023-02-20T17:14:09;-7.37;77.92
69715;HTU21D;56981;53.532;49.398;2023-02-20T17:16:38;-7.37;77.37
69715;HTU21D;56981;53.532;49.398;2023-02-20T17:19:04;-7.38;77.12
69715;HTU21D;56981;53.532;49.398;2023-02-20T17:21:31;-7.42;76.95
69715;HTU21D;56981;53.532;49.398;2023-02-20T17:23:57;-7.42;77.02
69715;HTU21D;56981;53.532;49.398;2023-02-20T17:26:25;-7.44;77.22
69715;HTU21D;56981;53.532;49.398;2023-02-20T17:28:53;-7.49;77.82
69715;HTU21D;56981;53.532;49.398;2023-02-20T17:31:19;-7.48;77.52
69715;HTU21D;56981;53.532;49.398;2023-02-20T17:33:46;-7.47;77.59